Aérodrome :
LOGIN :

S'inscrire | Disclaimer

   EN    FR    IT 

 










Légende :    VFR   VFR Marginal   IFR   IFR Intensif   IFR Très Intensif
Visi : 
Plafond : 
>= 8 km
>= 3000ft
5 à 8 km
1000 à 3000 ft
1500m à 5 km
500 à 1000 ft
800 à 1500m
200 à 500 ft
< 800m
< 200 ft
Symboles :   Orages  Brouillard  Fortes neiges  Fortes précipitations  Vent > 20 kt
SIGMETs :   Divers  Orages  Givrage  Turbulence  Onde Orograph.  Cendres Volcan.






- Altitude de l'aérodrome : 466 ft


LHPA - Pápa

DERNIER METAR :
  • 100315Z 15002KT CAVOK 03/M01 Q1022 NOSIG RMK BLU

METARs EXPIRÉS :
  • 100245Z 15002KT CAVOK 03/M01 Q1022 NOSIG RMK BLU
  • 100215Z 17002KT CAVOK 04/M01 Q1022 NOSIG RMK BLU
  • 100145Z 00000KT CAVOK 04/M01 Q1022 NOSIG RMK BLU
  • 100115Z 14002KT CAVOK 04/M02 Q1021 NOSIG RMK BLU
  • 100045Z 15004KT CAVOK 05/M01 Q1021 NOSIG RMK BLU
  • 100015Z 15002KT CAVOK 05/M01 Q1021 NOSIG RMK BLU

TAF TAF LHPA
Valide du 10 à 00h jusqu'au 11 à 00h UTC


092315Z 1000/1024 24006KT CAVOK
TEMPO 1000/1004 VRB03KT
BECMG 1003/1006 34006KT
BECMG 1006/1009 01014KT
BECMG 1016/1019 07006KT
TEMPO 1019/1024 VRB03KT



MET'MAP, la Météo Aéronautique d'un coup d'oeil ! - Copyright ORBIFLY Décembre 2007 - Disclaimer

ORBIFLY MET'MAP TEAM :

Programmation & Développement : Alexandra Zaïnal
Sur une idée originale de : Baudouin d'Aumeries
Assistance à la programmation : Marc-Olivier Méhu
Soutien technique & logistique : Manuel Goepfert

Contact : metmap@orbifly.com




SOURCES & CREDITS :

   NOAA